createdAt,value
2019-02-12T00:01:51.453Z,62.53
2019-02-12T00:04:39.367Z,62.67
2019-02-12T00:07:26.973Z,62.89
2019-02-12T00:10:14.989Z,62.78
2019-02-12T00:13:02.570Z,62.39
2019-02-12T00:15:50.329Z,61.69
2019-02-12T00:18:38.423Z,61.65
2019-02-12T00:21:26.409Z,61.81
2019-02-12T00:24:14.380Z,61.42
2019-02-12T00:27:01.935Z,60.76
2019-02-12T00:29:50.098Z,61.19
2019-02-12T00:32:38.055Z,61.32
2019-02-12T00:35:25.818Z,61.44
2019-02-12T00:38:13.888Z,61.09
2019-02-12T00:41:02.010Z,61.85
2019-02-12T00:43:50.049Z,61.51
2019-02-12T00:46:37.773Z,61.47
2019-02-12T00:49:25.311Z,61.48
2019-02-12T00:52:13.634Z,61.73
2019-02-12T00:55:02.030Z,62.16
2019-02-12T00:57:49.846Z,61.96
2019-02-12T01:00:37.681Z,62.18
2019-02-12T01:03:25.310Z,61.91
2019-02-12T01:06:13.670Z,62.28
2019-02-12T01:09:01.520Z,61.89
2019-02-12T01:11:49.321Z,61.88
2019-02-12T01:14:37.569Z,61.69
2019-02-12T01:17:25.878Z,62.02
2019-02-12T01:20:14.570Z,62.05
2019-02-12T01:23:02.267Z,62.45
2019-02-12T01:25:50.200Z,62.74
2019-02-12T01:28:38.214Z,62.75
2019-02-12T01:31:26.107Z,62.37
2019-02-12T01:34:14.434Z,62.25
2019-02-12T01:37:02.321Z,62.47
2019-02-12T01:39:49.990Z,61.75
2019-02-12T01:42:38.340Z,62.00
2019-02-12T01:45:26.172Z,61.93
2019-02-12T01:48:13.825Z,62.47
2019-02-12T01:51:01.792Z,62.07
2019-02-12T01:53:49.778Z,61.67
2019-02-12T01:56:37.668Z,61.16
2019-02-12T01:59:25.871Z,61.18
2019-02-12T02:02:13.826Z,61.28
2019-02-12T02:05:02.015Z,61.97
2019-02-12T02:07:49.631Z,61.90
2019-02-12T02:10:39.090Z,61.61
2019-02-12T02:13:27.331Z,61.35
2019-02-12T02:16:15.563Z,61.08
2019-02-12T02:19:03.065Z,61.33
2019-02-12T02:21:50.896Z,61.71
2019-02-12T02:24:38.441Z,61.64
2019-02-12T02:27:26.076Z,61.15
2019-02-12T02:30:14.625Z,62.02
2019-02-12T02:33:02.811Z,62.11
2019-02-12T02:35:50.951Z,61.84
2019-02-12T02:38:38.954Z,61.58
2019-02-12T02:41:26.824Z,61.57
2019-02-12T02:44:14.720Z,61.59
2019-02-12T02:47:02.669Z,61.90
2019-02-12T02:49:50.630Z,61.77
2019-02-12T02:52:38.058Z,61.56
2019-02-12T02:55:26.189Z,62.12
2019-02-12T02:58:13.859Z,62.38
2019-02-12T03:01:01.882Z,62.17
2019-02-12T03:03:49.630Z,62.08
2019-02-12T03:06:37.179Z,62.23
2019-02-12T03:09:25.162Z,61.53
2019-02-12T03:12:13.414Z,62.73
2019-02-12T03:15:00.849Z,61.57
2019-02-12T03:17:48.665Z,62.25
2019-02-12T03:20:36.506Z,62.19
2019-02-12T03:23:24.366Z,62.06
2019-02-12T03:26:12.536Z,61.03
2019-02-12T03:29:00.454Z,61.29
2019-02-12T03:31:48.093Z,61.95
2019-02-12T03:34:36.353Z,61.66
2019-02-12T03:37:24.405Z,61.70
2019-02-12T03:40:12.880Z,62.12
2019-02-12T03:43:00.524Z,61.29
2019-02-12T03:45:48.687Z,61.49
2019-02-12T03:48:36.799Z,61.04
2019-02-12T03:51:25.025Z,61.79
2019-02-12T03:54:12.968Z,61.42
2019-02-12T03:57:01.198Z,61.42
2019-02-12T03:59:49.072Z,60.86
2019-02-12T04:02:36.896Z,60.36
2019-02-12T04:05:25.472Z,60.30
2019-02-12T04:08:13.757Z,60.44
2019-02-12T04:11:01.598Z,60.57
2019-02-12T04:13:49.463Z,60.07
2019-02-12T04:16:37.349Z,60.48
2019-02-12T04:19:25.735Z,59.88
2019-02-12T04:22:21.921Z,60.71
2019-02-12T04:25:02.999Z,60.98
2019-02-12T04:27:52.264Z,61.11
2019-02-12T04:30:39.985Z,61.42
2019-02-12T04:33:27.928Z,60.08
2019-02-12T04:36:15.567Z,60.28
2019-02-12T04:39:04.049Z,60.73
2019-02-12T04:41:52.349Z,61.31
2019-02-12T04:44:40.047Z,61.03
2019-02-12T04:47:28.128Z,61.59
2019-02-12T04:50:16.097Z,60.84
2019-02-12T04:53:03.931Z,60.69
2019-02-12T04:55:51.905Z,60.90
2019-02-12T04:58:39.684Z,60.73
2019-02-12T05:01:27.799Z,61.20
2019-02-12T05:04:15.373Z,61.02
2019-02-12T05:07:03.706Z,61.15
2019-02-12T05:09:53.553Z,61.18
2019-02-12T05:12:41.157Z,61.12
2019-02-12T05:15:29.325Z,60.95
2019-02-12T05:18:17.108Z,60.39
2019-02-12T05:21:05.221Z,60.43
2019-02-12T05:23:53.372Z,60.88
2019-02-12T05:26:41.608Z,60.44
2019-02-12T05:29:29.633Z,60.29
2019-02-12T05:32:17.763Z,60.37
2019-02-12T05:35:05.876Z,60.16
2019-02-12T05:37:54.038Z,60.15
2019-02-12T05:40:42.150Z,59.84
2019-02-12T05:43:30.480Z,59.51
2019-02-12T05:46:18.674Z,59.58
2019-02-12T05:49:06.734Z,60.12
2019-02-12T05:51:54.934Z,59.73
2019-02-12T05:54:43.190Z,59.74
2019-02-12T05:57:31.226Z,59.53
2019-02-12T06:00:19.832Z,59.14
2019-02-12T06:03:07.871Z,59.24
2019-02-12T06:05:56.134Z,59.85
2019-02-12T06:08:43.965Z,60.01
2019-02-12T06:11:31.950Z,60.55
2019-02-12T06:14:19.586Z,60.89
2019-02-12T06:17:07.578Z,61.29
2019-02-12T06:19:55.706Z,61.25
2019-02-12T06:22:43.860Z,60.95
2019-02-12T06:25:32.367Z,60.44
2019-02-12T06:28:20.425Z,60.29
2019-02-12T06:31:08.369Z,60.19
2019-02-12T06:33:56.540Z,59.93
2019-02-12T06:36:44.662Z,60.04
2019-02-12T06:39:33.113Z,59.57
2019-02-12T06:42:21.353Z,59.61
2019-02-12T06:45:09.881Z,59.43
2019-02-12T06:47:57.696Z,59.27
2019-02-12T06:50:45.641Z,59.13
2019-02-12T06:53:33.930Z,58.69
2019-02-12T06:56:21.854Z,58.90
2019-02-12T06:59:09.632Z,58.50
2019-02-12T07:02:33.508Z,59.24
2019-02-12T07:05:21.423Z,58.63
2019-02-12T07:08:37.338Z,58.25
2019-02-12T07:12:08.201Z,58.30
2019-02-12T07:15:25.983Z,58.72
2019-02-12T07:18:49.823Z,58.52
2019-02-12T07:21:47.246Z,57.87
2019-02-12T07:24:52.014Z,57.75
2019-02-12T07:28:13.800Z,57.79
2019-02-12T07:31:34.581Z,57.47
2019-02-12T07:34:49.277Z,56.65
2019-02-12T07:38:12.001Z,56.16
2019-02-12T07:41:38.169Z,55.76
2019-02-12T07:45:13.553Z,54.20
2019-02-12T07:48:48.637Z,52.51
2019-02-12T07:52:32.347Z,51.70
2019-02-12T07:55:54.314Z,50.38
2019-02-12T07:59:10.210Z,49.83
2019-02-12T08:02:21.995Z,49.61
2019-02-12T08:05:56.046Z,49.58
2019-02-12T08:09:21.304Z,48.78
2019-02-12T08:12:32.868Z,47.44
2019-02-12T08:15:45.955Z,46.60
2019-02-12T08:19:04.870Z,46.67
2019-02-12T08:22:15.062Z,46.61
2019-02-12T08:25:29.259Z,44.97
2019-02-12T08:29:09.014Z,45.70
2019-02-12T08:32:41.470Z,46.20
2019-02-12T08:36:09.560Z,47.38
2019-02-12T08:39:32.268Z,47.60
2019-02-12T08:42:51.350Z,48.27
2019-02-12T08:46:16.502Z,48.70
2019-02-12T08:49:50.189Z,48.85
2019-02-12T08:53:16.239Z,48.92
2019-02-12T08:56:32.863Z,48.92
2019-02-12T09:00:15.306Z,49.16
2019-02-12T09:03:41.534Z,49.18
2019-02-12T09:07:09.995Z,50.00
2019-02-12T09:10:47.006Z,49.80
2019-02-12T09:14:14.637Z,49.99
2019-02-12T09:17:51.006Z,49.74
2019-02-12T09:21:06.725Z,50.30
2019-02-12T09:24:36.861Z,50.85
2019-02-12T09:28:26.605Z,50.51
2019-02-12T09:31:49.563Z,50.84
2019-02-12T09:35:05.350Z,49.93
2019-02-12T09:38:58.878Z,49.76
2019-02-12T09:42:09.015Z,49.05
2019-02-12T09:45:46.316Z,49.52
2019-02-12T09:48:47.137Z,49.92
2019-02-12T09:52:03.509Z,50.27
2019-02-12T09:55:27.523Z,50.65
2019-02-12T09:59:01.529Z,50.82
2019-02-12T10:02:27.710Z,51.47
2019-02-12T10:06:02.613Z,51.65
2019-02-12T10:09:17.188Z,50.84
2019-02-12T10:12:33.874Z,49.22
2019-02-12T10:15:51.004Z,49.37
2019-02-12T10:19:41.144Z,48.79
2019-02-12T10:23:16.251Z,48.54
2019-02-12T10:26:08.446Z,48.41
2019-02-12T10:29:27.465Z,48.91
2019-02-12T10:32:13.813Z,49.18
2019-02-12T10:35:01.511Z,48.03
2019-02-12T10:37:49.902Z,47.34
2019-02-12T10:40:37.679Z,46.24
2019-02-12T10:43:25.447Z,46.07
2019-02-12T10:46:13.024Z,45.35
2019-02-12T10:49:01.103Z,45.60
2019-02-12T10:51:49.080Z,45.53
2019-02-12T10:54:36.971Z,45.07
2019-02-12T10:57:24.985Z,44.78
2019-02-12T11:00:13.675Z,44.70
2019-02-12T11:03:01.689Z,44.63
2019-02-12T11:05:49.807Z,44.20
2019-02-12T11:08:37.998Z,44.35
2019-02-12T11:11:26.031Z,44.84
2019-02-12T11:14:14.487Z,44.18
2019-02-12T11:17:01.966Z,43.85
2019-02-12T11:19:50.256Z,43.63
2019-02-12T11:22:38.340Z,44.22
2019-02-12T11:25:26.376Z,43.28
2019-02-12T11:28:14.381Z,42.33
2019-02-12T11:31:01.986Z,41.96
2019-02-12T11:33:50.064Z,42.46
2019-02-12T11:36:38.265Z,41.26
2019-02-12T11:39:26.472Z,42.51
2019-02-12T11:42:14.720Z,42.66
2019-02-12T11:45:02.757Z,42.31
2019-02-12T11:47:50.967Z,42.64
2019-02-12T11:50:38.840Z,41.83
2019-02-12T11:53:28.060Z,41.96
2019-02-12T11:56:16.051Z,42.88
2019-02-12T11:59:03.988Z,41.99
2019-02-12T12:01:52.132Z,41.20
2019-02-12T12:04:39.955Z,40.52
2019-02-12T12:07:27.398Z,41.37
2019-02-12T12:10:15.877Z,41.13
2019-02-12T12:13:03.469Z,41.95
2019-02-12T12:15:51.002Z,41.69
2019-02-12T12:18:39.063Z,42.46
2019-02-12T12:21:26.843Z,43.53
2019-02-12T12:24:15.031Z,43.38
2019-02-12T12:27:02.887Z,43.06
2019-02-12T12:29:51.058Z,43.59
2019-02-12T12:32:39.058Z,43.02
2019-02-12T12:35:26.988Z,42.60
2019-02-12T12:38:15.088Z,42.20
2019-02-12T12:41:03.050Z,41.56
2019-02-12T12:43:51.477Z,41.08
2019-02-12T12:46:39.636Z,41.43
2019-02-12T12:49:27.457Z,40.81
2019-02-12T12:52:15.489Z,40.81
2019-02-12T12:55:03.069Z,41.04
2019-02-12T12:57:51.167Z,41.81
2019-02-12T13:00:38.737Z,41.64
2019-02-12T13:03:26.956Z,41.91
2019-02-12T13:06:15.065Z,42.15
2019-02-12T13:09:04.326Z,42.22
2019-02-12T13:11:52.479Z,42.71
2019-02-12T13:14:40.468Z,43.18
2019-02-12T13:17:28.352Z,42.29
2019-02-12T13:20:16.659Z,42.45
2019-02-12T13:23:04.579Z,41.78
2019-02-12T13:25:52.791Z,41.73
2019-02-12T13:28:40.738Z,42.47
2019-02-12T13:31:28.887Z,42.27
2019-02-12T13:34:17.195Z,42.77
2019-02-12T13:37:04.985Z,43.39
2019-02-12T13:39:53.171Z,42.97
2019-02-12T13:42:41.678Z,41.89
2019-02-12T13:45:29.982Z,41.72
2019-02-12T13:48:18.547Z,41.63
2019-02-12T13:51:06.572Z,41.00
2019-02-12T13:53:54.654Z,41.70
2019-02-12T13:56:42.737Z,41.82
2019-02-12T13:59:30.770Z,42.13
2019-02-12T14:02:18.366Z,42.80
2019-02-12T14:05:08.158Z,42.10
2019-02-12T14:07:55.953Z,42.54
2019-02-12T14:10:43.916Z,41.87
2019-02-12T14:13:31.630Z,42.00
2019-02-12T14:16:19.788Z,42.58
2019-02-12T14:19:07.936Z,42.11
2019-02-12T14:21:55.881Z,41.74
2019-02-12T14:24:43.504Z,41.84
2019-02-12T14:27:31.445Z,41.87
2019-02-12T14:30:19.491Z,42.42
2019-02-12T14:33:07.682Z,41.55
2019-02-12T14:35:55.739Z,41.64
2019-02-12T14:38:43.671Z,41.24
2019-02-12T14:41:32.077Z,42.08
2019-02-12T14:44:19.874Z,42.93
2019-02-12T14:47:07.823Z,42.94
2019-02-12T14:49:55.835Z,43.41
2019-02-12T14:52:44.019Z,41.83
2019-02-12T14:55:33.939Z,41.38
2019-02-12T14:58:21.968Z,42.37
2019-02-12T15:01:10.183Z,42.36
2019-02-12T15:03:58.083Z,42.06
2019-02-12T15:06:46.120Z,41.32
2019-02-12T15:09:34.269Z,41.01
2019-02-12T15:12:22.229Z,41.97
2019-02-12T15:15:10.472Z,43.11
2019-02-12T15:17:58.734Z,42.78
2019-02-12T15:20:46.435Z,42.84
2019-02-12T15:23:34.210Z,43.90
2019-02-12T15:26:22.198Z,43.22
2019-02-12T15:29:10.338Z,43.50
2019-02-12T15:31:57.873Z,43.03
2019-02-12T15:34:45.979Z,43.34
2019-02-12T15:37:34.149Z,43.09
2019-02-12T15:40:22.231Z,42.87
2019-02-12T15:43:09.967Z,43.40
2019-02-12T15:45:57.878Z,43.70
2019-02-12T15:48:45.730Z,42.77
2019-02-12T15:51:33.896Z,42.92
2019-02-12T15:54:21.996Z,42.65
2019-02-12T15:57:10.497Z,42.24
2019-02-12T15:59:58.414Z,42.50
2019-02-12T16:02:46.458Z,43.07
2019-02-12T16:05:34.872Z,44.05
2019-02-12T16:08:22.968Z,43.36
2019-02-12T16:11:11.180Z,43.57
2019-02-12T16:13:59.402Z,44.14
2019-02-12T16:16:47.126Z,43.88
2019-02-12T16:19:34.789Z,44.34
2019-02-12T16:22:22.669Z,44.47
2019-02-12T16:25:11.731Z,45.10
2019-02-12T16:27:59.350Z,45.22
2019-02-12T16:30:47.384Z,45.54
2019-02-12T16:33:35.198Z,45.39
2019-02-12T16:36:23.044Z,45.65
2019-02-12T16:39:11.175Z,45.84
2019-02-12T16:41:58.722Z,45.93
2019-02-12T16:44:46.926Z,45.99
2019-02-12T16:47:35.325Z,46.10
2019-02-12T16:50:23.653Z,46.31
2019-02-12T16:53:11.693Z,46.62
2019-02-12T16:56:07.929Z,46.35
2019-02-12T16:58:50.086Z,45.26
2019-02-12T17:01:38.069Z,45.97
2019-02-12T17:04:26.215Z,45.89
2019-02-12T17:07:14.869Z,45.43
2019-02-12T17:10:02.874Z,45.99
2019-02-12T17:12:50.929Z,46.42
2019-02-12T17:15:38.733Z,46.16
2019-02-12T17:18:26.913Z,46.60
2019-02-12T17:21:15.478Z,46.75
2019-02-12T17:24:03.375Z,46.76
2019-02-12T17:26:51.381Z,47.24
2019-02-12T17:29:39.267Z,47.14
2019-02-12T17:32:27.179Z,47.20
2019-02-12T17:35:15.554Z,47.98
2019-02-12T17:38:03.800Z,48.16
2019-02-12T17:40:51.648Z,48.45
2019-02-12T17:43:39.628Z,48.64
2019-02-12T17:46:27.581Z,48.91
2019-02-12T17:49:15.813Z,49.27
2019-02-12T17:52:03.337Z,49.44
2019-02-12T17:54:51.503Z,49.24
2019-02-12T17:57:39.848Z,49.59
2019-02-12T18:00:31.593Z,49.72
2019-02-12T18:03:19.635Z,49.50
2019-02-12T18:06:07.178Z,49.30
2019-02-12T18:08:54.775Z,49.59
2019-02-12T18:11:42.630Z,49.16
2019-02-12T18:14:30.672Z,48.69
2019-02-12T18:17:18.708Z,47.71
2019-02-12T18:20:07.135Z,48.01
2019-02-12T18:22:55.166Z,48.38
2019-02-12T18:25:43.280Z,48.25
2019-02-12T18:28:31.315Z,48.04
2019-02-12T18:31:19.804Z,48.03
2019-02-12T18:34:07.639Z,48.21
2019-02-12T18:36:55.654Z,48.35
2019-02-12T18:39:43.138Z,48.13
2019-02-12T18:42:31.397Z,48.08
2019-02-12T18:45:19.567Z,47.95
2019-02-12T18:48:07.894Z,48.25
2019-02-12T18:50:55.418Z,48.60
2019-02-12T18:53:43.282Z,48.51
2019-02-12T18:56:30.952Z,48.49
2019-02-12T18:59:19.078Z,48.87
2019-02-12T19:02:06.870Z,48.99
2019-02-12T19:04:54.730Z,49.21
2019-02-12T19:07:42.979Z,48.89
2019-02-12T19:10:31.386Z,48.72
2019-02-12T19:13:19.449Z,48.44
2019-02-12T19:16:07.382Z,48.49
2019-02-12T19:18:55.447Z,48.53
2019-02-12T19:21:43.637Z,48.37
2019-02-12T19:24:31.697Z,48.74
2019-02-12T19:27:20.232Z,48.27
2019-02-12T19:30:09.112Z,48.54
2019-02-12T19:32:56.970Z,48.46
2019-02-12T19:35:45.285Z,48.20
2019-02-12T19:38:33.069Z,48.31
2019-02-12T19:41:21.241Z,48.54
2019-02-12T19:44:09.460Z,48.75
2019-02-12T19:46:57.757Z,48.58
2019-02-12T19:49:45.541Z,48.98
2019-02-12T19:52:33.844Z,49.38
2019-02-12T19:55:21.993Z,48.80
2019-02-12T19:58:10.222Z,48.67
2019-02-12T20:00:58.042Z,48.46
2019-02-12T20:03:46.074Z,48.32
2019-02-12T20:06:33.851Z,48.04
2019-02-12T20:09:22.732Z,48.04
2019-02-12T20:12:10.511Z,48.46
2019-02-12T20:14:58.741Z,48.09
2019-02-12T20:17:47.000Z,48.77
2019-02-12T20:20:35.140Z,48.50
2019-02-12T20:23:23.197Z,49.00
2019-02-12T20:26:11.036Z,48.81
2019-02-12T20:28:59.083Z,48.69
2019-02-12T20:31:47.327Z,48.52
2019-02-12T20:34:35.469Z,48.67
2019-02-12T20:37:24.923Z,48.67
2019-02-12T20:40:13.334Z,48.76
2019-02-12T20:43:02.343Z,48.90
2019-02-12T20:45:50.725Z,48.97
2019-02-12T20:48:38.601Z,49.31
2019-02-12T20:51:27.058Z,49.42
2019-02-12T20:54:15.462Z,49.69
2019-02-12T20:57:03.676Z,49.48
2019-02-12T20:59:51.972Z,50.03
2019-02-12T21:02:40.050Z,49.43
2019-02-12T21:05:28.560Z,49.96
2019-02-12T21:08:16.651Z,49.60
2019-02-12T21:11:04.617Z,49.63
2019-02-12T21:13:52.164Z,49.75
2019-02-12T21:16:39.900Z,49.92
2019-02-12T21:19:28.150Z,49.90
2019-02-12T21:22:16.440Z,50.01
2019-02-12T21:25:04.350Z,49.73
2019-02-12T21:27:52.164Z,49.58
2019-02-12T21:30:40.017Z,49.55
2019-02-12T21:33:28.263Z,49.40
2019-02-12T21:36:15.940Z,50.14
2019-02-12T21:39:04.637Z,49.66
2019-02-12T21:41:52.690Z,49.00
2019-02-12T21:44:41.047Z,48.95
2019-02-12T21:47:29.036Z,49.54
2019-02-12T21:50:16.885Z,49.70
2019-02-12T21:53:04.467Z,49.61
2019-02-12T21:55:52.908Z,50.39
2019-02-12T21:58:40.953Z,50.63
2019-02-12T22:01:28.874Z,50.83
2019-02-12T22:04:16.781Z,50.79
2019-02-12T22:07:05.169Z,50.26
2019-02-12T22:09:53.459Z,50.56
2019-02-12T22:12:41.397Z,50.93
2019-02-12T22:15:29.465Z,50.15
2019-02-12T22:18:17.554Z,50.43
2019-02-12T22:21:05.316Z,50.40
2019-02-12T22:23:53.329Z,50.88
2019-02-12T22:26:41.326Z,51.51
2019-02-12T22:29:29.556Z,51.71
2019-02-12T22:32:17.131Z,51.70
2019-02-12T22:35:05.480Z,52.29
2019-02-12T22:37:53.372Z,51.23
2019-02-12T22:40:41.163Z,51.82
2019-02-12T22:43:28.883Z,52.13
2019-02-12T22:46:16.512Z,52.62
2019-02-12T22:49:04.195Z,52.68
2019-02-12T22:51:52.534Z,53.15
2019-02-12T22:54:40.535Z,52.62
2019-02-12T22:57:28.708Z,52.51
2019-02-12T23:00:47.128Z,52.59
2019-02-12T23:03:36.583Z,52.70
2019-02-12T23:06:24.533Z,53.74
2019-02-12T23:09:19.012Z,53.89
2019-02-12T23:12:07.133Z,53.62
2019-02-12T23:14:55.402Z,53.43
2019-02-12T23:17:43.465Z,53.67
2019-02-12T23:20:31.769Z,54.02
2019-02-12T23:23:19.632Z,54.11
2019-02-12T23:26:09.083Z,54.21
2019-02-12T23:28:56.978Z,54.86
2019-02-12T23:31:45.240Z,54.28
2019-02-12T23:34:33.476Z,53.80
2019-02-12T23:37:21.633Z,54.58
2019-02-12T23:40:09.355Z,54.87
2019-02-12T23:42:57.197Z,54.27
2019-02-12T23:45:44.949Z,54.73
2019-02-12T23:48:32.509Z,54.09
2019-02-12T23:51:20.365Z,54.07
2019-02-12T23:54:08.316Z,53.60
2019-02-12T23:56:55.903Z,54.06
2019-02-12T23:59:44.078Z,54.61
